createdAt,value
2022-11-01T00:00:50.366Z,10.90
2022-11-01T00:03:54.807Z,9.43
2022-11-01T00:06:58.061Z,11.40
2022-11-01T00:10:01.114Z,10.30
2022-11-01T00:13:04.417Z,10.83
2022-11-01T00:16:08.394Z,10.20
2022-11-01T00:19:13.360Z,10.57
2022-11-01T00:22:16.460Z,10.13
2022-11-01T00:25:19.443Z,10.17
2022-11-01T00:28:22.529Z,10.33
2022-11-01T00:31:26.355Z,9.90
2022-11-01T00:34:30.749Z,10.83
2022-11-01T00:37:33.767Z,9.63
2022-11-01T00:40:36.760Z,10.43
2022-11-01T00:43:39.714Z,9.33
2022-11-01T00:46:43.511Z,9.30
2022-11-01T00:49:47.943Z,9.97
2022-11-01T00:52:51.074Z,9.63
2022-11-01T00:55:54.581Z,9.83
2022-11-01T00:58:57.560Z,8.77
2022-11-01T01:02:00.826Z,8.50
2022-11-01T01:05:05.381Z,9.50
2022-11-01T01:08:08.377Z,10.00
2022-11-01T01:11:11.654Z,9.53
2022-11-01T01:14:14.981Z,8.47
2022-11-01T01:17:18.060Z,9.20
2022-11-01T01:20:23.124Z,8.77
2022-11-01T01:23:26.097Z,8.57
2022-11-01T01:26:29.128Z,9.77
2022-11-01T01:29:32.107Z,9.13
2022-11-01T01:32:35.889Z,9.37
2022-11-01T01:35:40.725Z,8.13
2022-11-01T01:38:43.711Z,8.30
2022-11-01T01:41:58.821Z,9.07
2022-11-01T01:45:31.496Z,8.00
2022-11-01T01:48:34.545Z,7.70
2022-11-01T01:51:38.946Z,7.77
2022-11-01T01:54:42.293Z,8.87
2022-11-01T01:57:45.491Z,8.67
2022-11-01T02:00:48.584Z,8.27
2022-11-01T02:03:52.250Z,8.47
2022-11-01T02:06:56.665Z,8.00
2022-11-01T02:10:00.883Z,7.97
2022-11-01T02:13:04.611Z,8.63
2022-11-01T02:16:26.728Z,8.80
2022-11-01T02:19:56.937Z,7.57
2022-11-01T02:23:19.568Z,7.90
2022-11-01T02:26:55.668Z,7.70
2022-11-01T02:30:17.251Z,8.07
2022-11-01T02:33:31.161Z,7.77
2022-11-01T02:36:39.192Z,7.63
2022-11-01T02:39:48.934Z,7.80
2022-11-01T02:42:57.344Z,8.10
2022-11-01T02:46:23.723Z,8.40
2022-11-01T02:49:31.783Z,8.17
2022-11-01T02:52:38.491Z,7.50
2022-11-01T02:55:41.819Z,8.00
2022-11-01T02:58:47.052Z,7.73
2022-11-01T03:01:56.640Z,8.70
2022-11-01T03:05:01.340Z,8.37
2022-11-01T03:08:08.487Z,7.50
2022-11-01T03:11:13.654Z,8.00
2022-11-01T03:14:27.607Z,7.67
2022-11-01T03:17:34.500Z,7.90
2022-11-01T03:20:50.153Z,7.67
2022-11-01T03:24:02.224Z,7.37
2022-11-01T03:27:11.706Z,8.07
2022-11-01T03:30:16.255Z,7.63
2022-11-01T03:33:20.310Z,7.27
2022-11-01T03:36:29.089Z,7.33
2022-11-01T03:39:37.090Z,7.40
2022-11-01T03:42:40.918Z,7.10
2022-11-01T03:45:45.221Z,7.90
2022-11-01T03:48:48.199Z,6.90
2022-11-01T03:51:52.700Z,7.30
2022-11-01T03:54:56.477Z,7.17
2022-11-01T03:58:01.193Z,6.97
2022-11-01T04:01:04.501Z,7.47
2022-11-01T04:04:07.521Z,7.00
2022-11-01T04:07:11.856Z,7.90
2022-11-01T04:10:15.931Z,7.00
2022-11-01T04:13:18.866Z,6.93
2022-11-01T04:16:39.207Z,7.20
2022-11-01T04:19:59.606Z,12.13
2022-11-01T04:23:06.272Z,13.53
2022-11-01T04:26:13.379Z,14.83
2022-11-01T04:29:16.364Z,12.73
2022-11-01T04:32:19.127Z,13.33
2022-11-01T04:35:22.616Z,14.60
2022-11-01T04:38:27.257Z,14.43
2022-11-01T04:41:30.920Z,14.63
2022-11-01T04:44:33.908Z,14.47
2022-11-01T04:47:36.939Z,17.53
2022-11-01T04:50:40.460Z,16.70
2022-11-01T04:53:44.895Z,15.10
2022-11-01T04:56:47.920Z,14.40
2022-11-01T04:59:51.166Z,13.17
2022-11-01T05:03:01.539Z,12.70
2022-11-01T05:06:04.996Z,12.63
2022-11-01T05:09:09.395Z,12.57
2022-11-01T05:12:12.865Z,12.27
2022-11-01T05:15:16.141Z,13.13
2022-11-01T05:18:19.222Z,12.80
2022-11-01T05:21:22.289Z,14.13
2022-11-01T05:24:26.726Z,12.80
2022-11-01T05:27:29.721Z,13.53
2022-11-01T05:30:32.733Z,13.57
2022-11-01T05:33:35.765Z,11.80
2022-11-01T05:36:38.792Z,12.50
2022-11-01T05:39:43.430Z,12.67
2022-11-01T05:42:46.436Z,14.10
2022-11-01T05:45:49.437Z,15.03
2022-11-01T05:48:52.434Z,15.50
2022-11-01T05:51:55.433Z,14.23
2022-11-01T05:54:59.852Z,13.77
2022-11-01T05:58:03.154Z,15.00
2022-11-01T06:01:07.923Z,13.27
2022-11-01T06:04:10.972Z,14.10
2022-11-01T06:07:14.349Z,12.90
2022-11-01T06:10:18.864Z,14.03
2022-11-01T06:13:21.853Z,14.00
2022-11-01T06:16:25.536Z,14.80
2022-11-01T06:19:28.489Z,15.47
2022-11-01T06:22:31.517Z,13.90
2022-11-01T06:25:36.634Z,14.73
2022-11-01T06:28:39.661Z,14.33
2022-11-01T06:31:42.732Z,13.73
2022-11-01T06:34:46.043Z,13.20
2022-11-01T06:37:49.000Z,11.97
2022-11-01T06:40:53.440Z,11.30
2022-11-01T06:43:56.526Z,10.73
2022-11-01T06:46:59.554Z,9.93
2022-11-01T06:50:02.563Z,10.20
2022-11-01T06:53:05.589Z,9.33
2022-11-01T06:56:10.330Z,8.87
2022-11-01T06:59:13.512Z,8.17
2022-11-01T07:02:19.387Z,7.87
2022-11-01T07:05:22.853Z,8.30
2022-11-01T07:08:25.802Z,7.53
2022-11-01T07:11:31.640Z,7.40
2022-11-01T07:14:34.966Z,8.00
2022-11-01T07:17:38.104Z,8.30
2022-11-01T07:23:48.033Z,7.40
2022-11-01T07:26:52.465Z,7.67
2022-11-01T07:29:55.468Z,6.87
2022-11-01T07:32:59.859Z,7.07
2022-11-01T07:36:03.888Z,7.30
2022-11-01T07:39:07.213Z,7.03
2022-11-01T07:42:11.998Z,8.83
2022-11-01T07:45:15.598Z,7.90
2022-11-01T07:48:20.285Z,7.83
2022-11-01T07:51:23.476Z,8.10
2022-11-01T07:54:26.493Z,8.50
2022-11-01T07:57:31.610Z,8.60
2022-11-01T08:03:42.916Z,9.03
2022-11-01T08:06:49.603Z,7.50
2022-11-01T08:09:54.246Z,9.00
2022-11-01T08:13:03.764Z,8.80
2022-11-01T08:16:07.698Z,8.20
2022-11-01T08:19:12.288Z,8.37
2022-11-01T08:22:15.404Z,10.07
2022-11-01T08:25:18.967Z,9.43
2022-11-01T08:28:24.077Z,9.77
2022-11-01T08:31:27.129Z,9.33
2022-11-01T08:34:31.828Z,10.30
2022-11-01T08:37:34.832Z,10.57
2022-11-01T08:40:37.796Z,9.10
2022-11-01T08:43:42.182Z,9.70
2022-11-01T08:46:45.314Z,9.80
2022-11-01T08:49:48.277Z,10.00
2022-11-01T08:52:51.318Z,11.47
2022-11-01T08:55:56.599Z,10.97
2022-11-01T08:59:01.550Z,10.77
2022-11-01T09:02:04.766Z,10.73
2022-11-01T09:05:08.429Z,9.70
2022-11-01T09:08:11.638Z,11.00
2022-11-01T09:11:14.688Z,11.93
2022-11-01T09:14:20.549Z,11.30
2022-11-01T09:17:23.640Z,11.27
2022-11-01T09:20:28.287Z,10.90
2022-11-01T09:23:31.530Z,9.97
2022-11-01T09:26:34.558Z,10.70
2022-11-01T09:29:39.180Z,10.67
2022-11-01T09:32:42.159Z,10.10
2022-11-01T09:35:55.304Z,10.90
2022-11-01T09:39:01.400Z,10.70
2022-11-01T09:42:08.213Z,11.00
2022-11-01T09:45:19.386Z,10.50
2022-11-01T09:48:24.144Z,11.43
2022-11-01T09:51:28.349Z,10.50
2022-11-01T09:54:31.376Z,10.67
2022-11-01T09:57:37.486Z,9.93
2022-11-01T10:00:48.718Z,10.13
2022-11-01T10:04:06.129Z,9.53
2022-11-01T10:07:18.246Z,10.50
2022-11-01T10:10:36.805Z,9.90
2022-11-01T10:13:48.127Z,9.63
2022-11-01T10:17:04.900Z,9.57
2022-11-01T10:20:13.098Z,10.70
2022-11-01T10:23:18.513Z,11.57
2022-11-01T10:26:26.315Z,13.40
2022-11-01T10:29:37.504Z,13.43
2022-11-01T10:32:48.158Z,12.83
2022-11-01T10:35:54.851Z,13.67
2022-11-01T10:39:52.589Z,12.60
2022-11-01T10:42:31.342Z,14.00
2022-11-01T10:45:34.440Z,15.30
2022-11-01T10:48:44.446Z,15.50
2022-11-01T10:51:48.856Z,16.80
2022-11-01T10:54:54.328Z,16.40
2022-11-01T10:58:02.559Z,16.37
2022-11-01T11:01:09.043Z,15.60
2022-11-01T11:04:16.825Z,15.27
2022-11-01T11:07:23.155Z,15.73
2022-11-01T11:10:29.342Z,16.30
2022-11-01T11:13:34.480Z,16.50
2022-11-01T11:16:44.638Z,16.43
2022-11-01T11:19:49.455Z,14.93
2022-11-01T11:22:52.920Z,14.93
2022-11-01T11:26:02.553Z,14.60
2022-11-01T11:29:06.495Z,14.87
2022-11-01T11:32:17.315Z,15.33
2022-11-01T11:35:24.335Z,15.13
2022-11-01T11:38:43.236Z,14.60
2022-11-01T11:41:47.796Z,14.43
2022-11-01T11:44:55.514Z,14.20
2022-11-01T11:48:16.855Z,13.93
2022-11-01T11:51:22.044Z,13.47
2022-11-01T11:54:28.978Z,12.90
2022-11-01T11:57:32.036Z,13.00
2022-11-01T12:00:39.440Z,12.10
2022-11-01T12:03:48.620Z,13.13
2022-11-01T12:06:53.104Z,12.80
2022-11-01T12:09:57.131Z,12.20
2022-11-01T12:13:00.512Z,12.27
2022-11-01T12:16:25.597Z,12.80
2022-11-01T12:19:30.044Z,12.03
2022-11-01T12:22:37.188Z,12.27
2022-11-01T12:25:44.745Z,12.50
2022-11-01T12:28:53.100Z,12.17
2022-11-01T12:32:01.814Z,10.53
2022-11-01T12:35:12.549Z,11.57
2022-11-01T12:38:42.751Z,12.10
2022-11-01T12:41:51.382Z,11.20
2022-11-01T12:44:58.380Z,11.30
2022-11-01T12:48:05.786Z,11.37
2022-11-01T12:51:14.500Z,10.80
2022-11-01T12:54:25.991Z,10.20
2022-11-01T12:57:29.494Z,10.83
2022-11-01T13:00:44.626Z,10.40
2022-11-01T13:03:56.865Z,10.30
2022-11-01T13:07:12.834Z,11.07
2022-11-01T13:10:23.536Z,11.20
2022-11-01T13:13:34.956Z,10.60
2022-11-01T13:16:44.587Z,9.63
2022-11-01T13:19:56.828Z,9.50
2022-11-01T13:23:10.079Z,11.20
2022-11-01T13:26:20.893Z,9.67
2022-11-01T13:29:35.889Z,10.30
2022-11-01T13:32:46.018Z,9.43
2022-11-01T13:35:55.517Z,9.73
2022-11-01T13:39:07.735Z,9.43
2022-11-01T13:42:16.270Z,9.00
2022-11-01T13:45:58.802Z,9.57
2022-11-01T13:49:45.314Z,9.40
2022-11-01T13:52:52.729Z,9.20
2022-11-01T13:56:00.905Z,9.20
2022-11-01T13:59:14.394Z,8.70
2022-11-01T14:02:57.383Z,8.77
2022-11-01T14:06:31.445Z,8.53
2022-11-01T14:09:44.081Z,9.00
2022-11-01T14:13:07.869Z,8.67
2022-11-01T14:16:22.801Z,8.40
2022-11-01T14:19:27.331Z,8.60
2022-11-01T14:22:33.615Z,8.90
2022-11-01T14:25:36.621Z,8.50
2022-11-01T14:28:44.322Z,8.20
2022-11-01T14:31:53.750Z,8.80
2022-11-01T14:35:07.435Z,8.73
2022-11-01T14:38:15.577Z,8.03
2022-11-01T14:41:20.615Z,7.90
2022-11-01T14:44:29.930Z,7.90
2022-11-01T14:47:38.527Z,7.43
2022-11-01T14:50:50.545Z,7.67
2022-11-01T14:54:02.688Z,8.20
2022-11-01T14:57:21.259Z,7.60
2022-11-01T15:00:29.724Z,7.63
2022-11-01T15:03:34.431Z,8.07
2022-11-01T15:06:43.398Z,7.30
2022-11-01T15:09:57.298Z,7.43
2022-11-01T15:13:02.762Z,7.47
2022-11-01T15:16:14.270Z,7.27
2022-11-01T15:19:27.960Z,6.80
2022-11-01T15:22:34.252Z,7.87
2022-11-01T15:25:38.300Z,7.90
2022-11-01T15:28:44.259Z,7.33
2022-11-01T15:31:50.784Z,6.53
2022-11-01T15:34:56.643Z,7.20
2022-11-01T15:37:59.958Z,7.57
2022-11-01T15:41:21.282Z,7.53
2022-11-01T15:44:25.930Z,6.50
2022-11-01T15:47:29.704Z,6.80
2022-11-01T15:50:37.542Z,7.00
2022-11-01T15:53:43.132Z,6.87
2022-11-01T15:56:51.436Z,6.83
2022-11-01T16:00:01.063Z,6.80
2022-11-01T16:03:08.136Z,6.60
2022-11-01T16:06:18.655Z,8.00
2022-11-01T16:09:33.350Z,7.47
2022-11-01T16:12:40.051Z,6.80
2022-11-01T16:15:58.815Z,6.57
2022-11-01T16:19:01.833Z,7.67
2022-11-01T16:22:28.407Z,6.60
2022-11-01T16:25:33.906Z,6.70
2022-11-01T16:28:40.970Z,6.70
2022-11-01T16:31:43.997Z,7.90
2022-11-01T16:34:47.721Z,7.30
2022-11-01T16:37:52.302Z,7.10
2022-11-01T16:40:58.165Z,7.90
2022-11-01T16:44:03.490Z,8.20
2022-11-01T16:47:06.730Z,7.67
2022-11-01T16:50:17.655Z,7.70
2022-11-01T16:53:22.536Z,9.00
2022-11-01T16:56:36.492Z,7.57
2022-11-01T16:59:42.726Z,8.93
2022-11-01T17:02:45.724Z,9.30
2022-11-01T17:05:52.552Z,9.10
2022-11-01T17:09:00.385Z,8.40
2022-11-01T17:12:03.469Z,9.33
2022-11-01T17:15:07.271Z,8.63
2022-11-01T17:18:16.348Z,8.40
2022-11-01T17:21:19.892Z,8.17
2022-11-01T17:24:27.371Z,9.00
2022-11-01T17:27:30.897Z,8.17
2022-11-01T17:30:34.016Z,8.30
2022-11-01T17:33:37.022Z,7.90
2022-11-01T17:36:45.596Z,7.93
2022-11-01T17:39:49.988Z,8.60
2022-11-01T17:42:53.233Z,7.90
2022-11-01T17:45:56.240Z,7.63
2022-11-01T17:48:59.754Z,7.60
2022-11-01T17:52:04.372Z,7.30
2022-11-01T17:55:10.498Z,7.43
2022-11-01T17:58:13.774Z,7.73
2022-11-01T18:01:17.512Z,6.80
2022-11-01T18:04:20.588Z,7.50
2022-11-01T18:07:24.042Z,5.97
2022-11-01T18:10:37.598Z,7.03
2022-11-01T18:13:49.007Z,7.10
2022-11-01T18:16:59.846Z,8.67
2022-11-01T18:20:12.876Z,8.10
2022-11-01T18:23:20.183Z,9.10
2022-11-01T18:26:28.891Z,9.20
2022-11-01T18:29:34.235Z,9.10
2022-11-01T18:32:45.029Z,9.40
2022-11-01T18:35:56.025Z,9.60
2022-11-01T18:39:04.303Z,10.17
2022-11-01T18:42:11.238Z,9.40
2022-11-01T18:45:25.586Z,10.20
2022-11-01T18:48:33.002Z,9.87
2022-11-01T18:51:36.823Z,10.17
2022-11-01T18:54:48.397Z,10.80
2022-11-01T18:57:55.954Z,10.00
2022-11-01T19:01:03.466Z,10.90
2022-11-01T19:04:24.367Z,28.20
2022-11-01T19:07:39.346Z,25.07
2022-11-01T19:10:47.760Z,23.27
2022-11-01T19:13:52.167Z,22.57
2022-11-01T19:16:56.530Z,20.83
2022-11-01T19:20:00.561Z,21.07
2022-11-01T19:23:05.239Z,18.00
2022-11-01T19:26:23.371Z,17.30
2022-11-01T19:29:32.406Z,17.03
2022-11-01T19:32:35.423Z,16.43
2022-11-01T19:35:39.351Z,16.80
2022-11-01T19:38:45.154Z,16.30
2022-11-01T19:41:48.348Z,15.33
2022-11-01T19:44:55.463Z,14.47
2022-11-01T19:47:59.403Z,15.20
2022-11-01T19:51:02.834Z,14.80
2022-11-01T19:54:11.942Z,14.27
2022-11-01T19:57:26.615Z,15.47
2022-11-01T20:00:30.990Z,14.90
2022-11-01T20:03:40.045Z,15.20
2022-11-01T20:06:48.639Z,15.83
2022-11-01T20:09:55.981Z,14.43
2022-11-01T20:13:01.870Z,15.07
2022-11-01T20:16:06.844Z,13.87
2022-11-01T20:19:13.249Z,15.90
2022-11-01T20:22:20.256Z,15.37
2022-11-01T20:25:23.387Z,14.27
2022-11-01T20:28:26.457Z,15.00
2022-11-01T20:31:31.132Z,14.17
2022-11-01T20:34:34.208Z,14.87
2022-11-01T20:37:37.900Z,13.67
2022-11-01T20:40:41.421Z,14.07
2022-11-01T20:43:44.917Z,12.90
2022-11-01T20:46:49.478Z,14.37
2022-11-01T20:49:53.155Z,14.80
2022-11-01T20:52:56.882Z,14.33
2022-11-01T20:56:00.200Z,13.37
2022-11-01T20:59:03.344Z,13.70
2022-11-01T21:02:11.501Z,13.23
2022-11-01T21:05:22.018Z,12.30
2022-11-01T21:08:26.925Z,12.67
2022-11-01T21:11:44.122Z,10.83
2022-11-01T21:14:47.952Z,9.17
2022-11-01T21:17:54.032Z,8.90
2022-11-01T21:20:59.007Z,9.00
2022-11-01T21:24:30.129Z,9.57
2022-11-01T21:27:34.582Z,8.70
2022-11-01T21:30:37.634Z,9.00
2022-11-01T21:33:43.368Z,9.00
2022-11-01T21:36:49.243Z,8.50
2022-11-01T21:40:03.157Z,9.20
2022-11-01T21:43:26.188Z,9.60
2022-11-01T21:46:36.291Z,8.60
2022-11-01T21:49:40.746Z,9.37
2022-11-01T21:52:43.770Z,9.17
2022-11-01T21:55:46.780Z,9.47
2022-11-01T21:58:49.848Z,8.43
2022-11-01T22:01:52.985Z,8.70
2022-11-01T22:04:57.556Z,9.20
2022-11-01T22:08:00.548Z,8.43
2022-11-01T22:11:03.546Z,8.47
2022-11-01T22:14:07.192Z,8.60
2022-11-01T22:17:10.190Z,8.40
2022-11-01T22:20:14.967Z,8.40
2022-11-01T22:23:18.007Z,8.40
2022-11-01T22:26:21.047Z,8.43
2022-11-01T22:29:24.070Z,8.80
2022-11-01T22:32:27.023Z,8.50
2022-11-01T22:35:31.428Z,8.17
2022-11-01T22:38:38.944Z,8.53
2022-11-01T22:41:42.669Z,9.40
2022-11-01T22:44:47.810Z,8.23
2022-11-01T22:47:50.825Z,7.77
2022-11-01T22:50:55.235Z,8.50
2022-11-01T22:54:00.619Z,7.90
2022-11-01T22:57:13.395Z,8.40
2022-11-01T23:00:32.203Z,7.50
2022-11-01T23:03:39.582Z,7.40
2022-11-01T23:06:45.006Z,8.03
2022-11-01T23:09:47.940Z,8.07
2022-11-01T23:13:10.578Z,7.60
2022-11-01T23:16:22.816Z,7.30
2022-11-01T23:19:25.832Z,7.57
2022-11-01T23:22:34.152Z,7.30
2022-11-01T23:25:37.191Z,6.80
2022-11-01T23:28:42.467Z,7.20
2022-11-01T23:31:45.556Z,7.33
2022-11-01T23:34:49.536Z,6.90
2022-11-01T23:37:56.896Z,6.77
2022-11-01T23:40:59.922Z,6.80
2022-11-01T23:44:10.812Z,6.80
2022-11-01T23:47:21.405Z,7.60
2022-11-01T23:50:29.140Z,6.67
2022-11-01T23:53:36.577Z,7.00
2022-11-01T23:56:39.700Z,6.33
2022-11-01T23:59:42.914Z,6.80
